ADDS METAR Data INFO
IDs: Format: Raw Decoded Include TAF

Data at: 0054 UTC 21 Oct 2017

PFYU 202356Z 00000KT 10SM OVC110 M11/M14 A2942 RMK AO2 SLP989 60000 T11061144 11100 21161 53004
PFYU 202256Z 00000KT 10SM OVC110 M12/M14 A2942 RMK AO2 SLP986 T11221144
PFYU 202156Z 00000KT 10SM OVC110 M13/M14 A2941 RMK AO2 SLP985 T11281144
PFYU 202056Z 26003KT 10SM OVC110 M13/M15 A2941 RMK AO2 SNE28 SLP985 P0000 60000 T11331150 51006
PFYU 201956Z 25003KT 9SM -SN BKN110 M14/M16 A2941 RMK AO2 SNB25 SLP984 P0000 T11441161
PFYU 201856Z VRB03KT 10SM BKN110 M15/M17 A2940 RMK AO2 SNB23E38 SLP981 P0000 T11501167
PFYU 201756Z 00000KT 10SM OVC110 M16/M18 A2939 RMK AO2 SLP979 T11611178 11161 21211 53003
PFYU 201656Z 00000KT 10SM OVC110 M17/M18 A2939 RMK AO2 SLP977 T11671183
PFYU 201556Z 27003KT 10SM OVC110 M17/M18 A2939 RMK AO2 SLP976 T11721183
PFYU 201456Z 00000KT 10SM OVC110 M20/M22 A2938 RMK AO2 SLP976 T12001217 55001
PFYU 201356Z AUTO 00000KT 10SM BKN110 M21/M23 A2938 RMK AO2 SLP974 T12111233 FZRANO
PFYU 201256Z AUTO 00000KT 10SM SCT110 M19/M21 A2939 RMK AO2 SLP976 T11941206 FZRANO
PFYU 201156Z AUTO 00000KT 10SM FEW110 M20/M23 A2939 RMK AO2 SLP976 6//// 7//// T12001228 11189 21217 57002 FZRANO
PFYU 201056Z AUTO 00000KT 10SM BKN110 M19/M21 A2939 RMK AO2 SLP975 T11891206 FZRANO
PFYU 200956Z AUTO 00000KT 10SM FEW001 OVC110 M20/M22 A2939 RMK AO2 SLP978 T12001217 FZRANO
PFYU 200938Z AUTO 00000KT 10SM FEW001 OVC110 M20/M22 A2939 RMK AO2 FZRANO
PFYU 200856Z AUTO 00000KT 7SM BKN110 M22/M24 A2939 RMK AO2 SLP978 6//// T12171239 410671217 53001 FZRANO
PFYU 200756Z AUTO 00000KT 10SM CLR M20/M23 A2939 RMK AO2 SLP975 T12001228 FZRANO
PFYU 200656Z AUTO 00000KT 8SM CLR M19/M22 A2939 RMK AO2 SLP975 T11941217 FZRANO
PFYU 200556Z AUTO 00000KT 6SM BR CLR M20/M22 A2939 RMK AO2 SLP977 T12001222 11083 21200 56001 FZRANO
PFYU 200456Z AUTO 00000KT 8SM CLR M19/M22 A2939 RMK AO2 SLP977 T11891217 FZRANO
PFYU 200356Z AUTO 00000KT 4SM BR CLR M18/M21 A2939 RMK AO2 SLP976 T11831206 FZRANO
PFYU 200256Z 00000KT 10SM CLR M16/M18 A2939 RMK AO2 SLP979 T11561178 51002
PFYU 200156Z 00000KT 10SM CLR M12/M13 A2939 RMK AO2 SLP978 T11171133
PFYU 200056Z 00000KT 10SM CLR M08/M11 A2939 RMK AO2 SLP976 T10831111
PFYU 192356Z 00000KT 10SM FEW010 M09/M11 A2939 RMK AO2 SLP975 T10891111 11067 21139 58002
PFYU 192256Z 28003KT 10SM CLR M07/M11 A2939 RMK AO2 SLP978 T10721106
PFYU 192156Z 26004KT 10SM CLR M08/M11 A2939 RMK AO2 SLP978 T10781111
PFYU 192056Z 28003KT 10SM CLR M11/M13 A2939 RMK AO2 SLP977 T11111128 50003
PFYU 191956Z 00000KT 10SM OVC085 M12/M13 A2939 RMK AO2 SLP977 T11171133
PFYU 191856Z 00000KT 10SM OVC085 M12/M14 A2939 RMK AO2 SLP976 T11221139
PFYU 191756Z 29003KT 10SM OVC085 M14/M15 A2938 RMK AO2 SLP975 T11391150 11111 21150 51006
PFYU 191656Z 00000KT 10SM OVC085 M13/M15 A2938 RMK AO2 SLP973 T11331150
PFYU 191556Z 00000KT 10SM OVC085 M13/M15 A2937 RMK AO2 SLP971 T11331150
PFYU 191456Z 00000KT 10SM SCT085 M14/M16 A2936 RMK AO2 SLP969 T11441161 51002
PFYU 191356Z AUTO 00000KT 10SM FEW085 M13/M14 A2936 RMK AO2 SLP967 T11281144 FZRANO
PFYU 191256Z AUTO 34003KT 10SM FEW060 SCT085 M12/M13 A2936 RMK AO2 SLP966 T11171133 FZRANO